Time;durP1;ratioP1;P1;durP2;ratioP2;P2;SDS_P1;SDS_P2;PMS_P1;PMS_P2;Temp;Humidity;BMP_temperature;BMP_pressure;BME280_temperature;BME280_humidity;BME280_pressure;Samples;Min_cycle;Max_cycle;Signal;HPM_P1;HPM_P2
2023/11/22 00:02:05;;;;;;;;;15.25;10.25;;;;;14.37;72.23;100425.34;146616;672;46016;-69
2023/11/22 00:05:00;;;;;;;;;10.25;10.25;;;;;14.58;73.05;100433.84;146618;604;46010;-68
2023/11/22 00:08:02;;;;;;;;;12.75;12.50;;;;;14.77;71.61;100441.41;146615;607;46016;-68
2023/11/22 00:10:58;;;;;;;;;12.25;10.00;;;;;14.95;73.27;100435.84;146612;571;46021;-68
2023/11/22 00:13:55;;;;;;;;;10.75;9.25;;;;;15.15;71.84;100423.31;146616;595;47012;-69
2023/11/22 00:16:58;;;;;;;;;9.50;9.00;;;;;15.35;69.63;100423.84;146619;581;46020;-69
2023/11/22 00:20:01;;;;;;;;;10.50;8.50;;;;;15.45;67.92;100425.91;146618;648;46012;-68
2023/11/22 00:22:59;;;;;;;;;9.00;7.75;;;;;15.54;71.20;100422.63;146619;716;46020;-69
2023/11/22 00:26:03;;;;;;;;;;;;;;;;;;;;;
2023/11/22 00:28:58;;;;;;;;;12.75;10.75;;;;;15.67;69.76;100411.69;146615;600;47014;-69
2023/11/22 00:31:56;;;;;;;;;8.00;6.75;;;;;15.73;68.70;100407.44;146614;628;46914;-69
2023/11/22 00:35:09;;;;;;;;;10.00;8.75;;;;;15.75;69.03;100411.88;146618;579;47010;-69
2023/11/22 00:38:16;;;;;;;;;11.25;10.25;;;;;14.18;67.91;100131.84;146616;584;46914;-68
2023/11/22 00:41:28;;;;;;;;;9.50;8.50;;;;;15.79;68.79;100411.09;146615;577;46933;-70
2023/11/22 00:44:24;;;;;;;;;11.50;11.00;;;;;15.78;68.30;100401.50;146615;743;46016;-70
2023/11/22 00:47:26;;;;;;;;;17.75;16.25;;;;;15.79;68.21;100387.56;146619;581;47010;-71
2023/11/22 00:50:23;;;;;;;;;16.50;13.25;;;;;15.77;70.14;100384.06;146613;579;46016;-69
2023/11/22 00:53:18;;;;;;;;;8.00;5.75;;;;;15.74;69.14;100380.47;146615;605;47054;-68
2023/11/22 00:56:19;;;;;;;;;9.50;7.75;;;;;15.74;68.13;100388.31;146614;574;47012;-69
2023/11/22 00:59:26;;;;;;;;;11.00;10.00;;;;;15.73;67.31;100381.31;146619;612;46021;-68
2023/11/22 01:02:37;;;;;;;;;38.50;33.25;;;;;15.68;67.09;100371.63;146615;574;46916;-68
2023/11/22 01:05:44;;;;;;;;;44.75;36.50;;;;;15.54;66.07;100388.66;146614;577;47020;-69
2023/11/22 01:08:51;;;;;;;;;48.50;39.00;;;;;15.39;64.85;100398.69;146616;633;46016;-69
2023/11/22 01:11:48;;;;;;;;;42.00;34.50;;;;;15.29;66.69;100384.50;146621;631;46020;-70
2023/11/22 01:14:45;;;;;;;;;14.25;12.25;;;;;15.24;72.37;100373.94;146615;615;46016;-70
2023/11/22 01:17:39;;;;;;;;;9.25;8.25;;;;;15.30;71.90;100365.41;146623;596;46010;-68
2023/11/22 01:20:45;;;;;;;;;11.25;10.00;;;;;15.37;72.32;100367.31;146613;576;46915;-69
2023/11/22 01:23:46;;;;;;;;;10.50;9.50;;;;;15.43;70.39;100364.88;146623;597;45029;-69
2023/11/22 01:26:59;;;;;;;;;;;;;;;;;;;;;
2023/11/22 01:30:01;;;;;;;;;19.00;15.75;;;;;15.51;68.34;100367.66;146617;630;47010;-70
2023/11/22 01:32:56;;;;;;;;;44.25;37.25;;;;;15.44;69.12;100360.53;146617;622;46013;-69
2023/11/22 01:35:56;;;;;;;;;47.50;38.50;;;;;15.30;67.42;100361.91;146622;624;45020;-71
2023/11/22 01:39:04;;;;;;;;;46.00;37.00;;;;;15.18;68.47;100372.91;146617;565;46916;-70
2023/11/22 01:42:02;;;;;;;;;47.00;38.00;;;;;15.03;68.73;100355.09;146618;637;46020;-70
2023/11/22 01:44:57;;;;;;;;;43.25;35.00;;;;;14.88;68.53;100346.84;146614;613;47913;-71
2023/11/22 01:47:55;;;;;;;;;38.75;33.75;;;;;14.78;69.21;100361.34;146620;655;46021;-70
2023/11/22 01:50:54;;;;;;;;;40.50;33.75;;;;;14.71;68.44;100362.03;146617;688;47012;-71
2023/11/22 01:54:12;;;;;;;;;38.75;32.25;;;;;14.66;70.52;100347.97;146618;614;46010;-71
2023/11/22 01:57:10;;;;;;;;;37.00;32.00;;;;;14.54;70.45;100340.66;146614;649;47012;-70
2023/11/22 02:00:14;;;;;;;;;37.00;31.50;;;;;14.46;71.52;100342.16;146621;595;45020;-70
2023/11/22 02:03:18;;;;;;;;;32.75;27.75;;;;;14.39;71.55;100335.87;146619;637;46016;-70
2023/11/22 02:06:14;;;;;;;;;29.00;27.25;;;;;14.35;72.51;100335.72;146622;613;46010;-71
2023/11/22 02:09:26;;;;;;;;;32.50;27.25;;;;;12.81;71.27;100067.87;146612;572;47020;-71
2023/11/22 02:12:20;;;;;;;;;23.75;21.75;;;;;14.35;72.91;100339.19;146613;618;45020;-71
2023/11/22 02:15:24;;;;;;;;;29.50;24.50;;;;;14.38;73.17;100351.44;146612;630;47914;-71
2023/11/22 02:18:28;;;;;;;;;25.75;25.00;;;;;14.38;72.85;100344.50;146615;614;47014;-68
2023/11/22 02:21:22;;;;;;;;;19.50;17.25;;;;;14.40;73.47;100348.06;146613;585;46016;-68
2023/11/22 02:24:23;;;;;;;;;18.50;16.25;;;;;14.40;73.51;100345.44;146618;625;46010;-69
2023/11/22 02:27:18;;;;;;;;;16.75;14.00;;;;;14.40;74.41;100336.75;146614;658;46016;-69
2023/11/22 02:30:17;;;;;;;;;14.75;13.25;;;;;14.42;75.15;100335.94;146617;601;46021;-69
2023/11/22 02:33:14;;;;;;;;;13.50;11.50;;;;;14.46;75.21;100329.97;146614;569;46016;-69
2023/11/22 02:36:23;;;;;;;;;17.00;15.00;;;;;14.53;74.21;100329.34;146616;599;47020;-68
2023/11/22 02:39:21;;;;;;;;;15.25;15.00;;;;;14.58;74.48;100325.97;146616;590;46017;-68
2023/11/22 02:42:19;;;;;;;;;19.00;17.75;;;;;14.53;72.70;100318.91;146613;626;46020;-69
2023/11/22 02:45:16;;;;;;;;;24.75;19.75;;;;;14.51;73.05;100320.56;146612;624;47016;-69
2023/11/22 02:48:13;;;;;;;;;10.25;6.50;;;;;14.50;73.35;100324.00;146618;591;46010;-68
2023/11/22 02:51:10;;;;;;;;;26.00;23.50;;;;;14.45;72.92;100322.97;146615;569;46916;-69
2023/11/22 02:54:11;;;;;;;;;29.25;25.50;;;;;14.40;72.83;100331.53;146616;589;46021;-69
2023/11/22 02:57:10;;;;;;;;;44.75;35.50;;;;;14.37;73.07;100336.66;146613;625;47012;-70
2023/11/22 03:00:10;;;;;;;;;45.75;37.00;;;;;14.35;73.44;100338.31;146613;564;47014;-72
2023/11/22 03:03:11;;;;;;;;;23.50;22.00;;;;;14.31;75.35;100326.91;146614;566;46016;-70
2023/11/22 03:06:24;;;;;;;;;16.50;15.00;;;;;14.40;76.19;100315.88;146616;569;46020;-70
2023/11/22 03:09:41;;;;;;;;;16.00;14.25;;;;;14.57;73.28;100317.25;146612;582;47014;-69
2023/11/22 03:12:42;;;;;;;;;16.00;11.75;;;;;14.69;75.95;100312.38;146613;647;46020;-71
2023/11/22 03:16:00;;;;;;;;;11.25;9.75;;;;;14.67;72.12;100301.03;146614;612;46013;-71
2023/11/22 03:19:00;;;;;;;;;25.50;22.25;;;;;14.95;72.74;100294.84;146619;599;46010;-71
2023/11/22 03:22:01;;;;;;;;;47.50;36.50;;;;;15.00;71.50;100308.88;146613;583;47012;-69
2023/11/22 03:24:55;;;;;;;;;47.75;37.75;;;;;14.95;70.37;100322.66;146615;565;46021;-70
2023/11/22 03:27:50;;;;;;;;;47.25;37.50;;;;;14.83;69.69;100323.22;146614;771;46012;-69
2023/11/22 03:31:05;;;;;;;;;51.50;41.75;;;;;13.20;67.99;100053.44;146618;625;46010;-69
2023/11/22 03:34:06;;;;;;;;;49.50;38.75;;;;;14.56;69.67;100310.28;146614;598;46913;-69
2023/11/22 03:37:02;;;;;;;;;48.50;38.25;;;;;14.43;70.07;100297.72;146618;567;46010;-70
2023/11/22 03:40:02;;;;;;;;;47.00;36.25;;;;;14.32;70.77;100293.03;146614;642;46012;-67
2023/11/22 03:43:02;;;;;;;;;48.00;38.50;;;;;14.26;71.50;100298.06;146610;584;47014;-67
2023/11/22 03:46:09;;;;;;;;;51.25;38.75;;;;;14.19;71.20;100295.25;146615;603;47012;-67
2023/11/22 03:49:07;;;;;;;;;43.50;36.50;;;;;14.16;72.73;100305.59;146617;654;46020;-67
2023/11/22 03:52:15;;;;;;;;;47.00;38.00;;;;;14.13;71.00;100314.19;146611;684;46017;-68
2023/11/22 03:55:24;;;;;;;;;45.00;37.25;;;;;14.13;72.84;100321.16;146617;570;46020;-68
2023/11/22 03:58:27;;;;;;;;;49.00;38.50;;;;;14.12;73.17;100324.59;146614;627;46916;-69
2023/11/22 04:01:38;;;;;;;;;48.00;39.75;;;;;14.11;71.85;100334.12;146616;585;46011;-67
2023/11/22 04:04:40;;;;;;;;;49.75;40.00;;;;;14.09;72.42;100330.59;146614;614;46016;-67
2023/11/22 04:07:39;;;;;;;;;49.75;39.75;;;;;14.07;72.48;100342.69;146616;600;47014;-67
2023/11/22 04:10:31;;;;;;;;;48.00;40.00;;;;;14.04;72.50;100335.66;146615;581;46016;-68
2023/11/22 04:13:33;;;;;;;;;44.50;34.75;;;;;13.99;71.10;100345.06;146612;580;46029;-69
2023/11/22 04:16:33;;;;;;;;;46.75;37.75;;;;;13.95;72.83;100342.31;146612;563;46016;-69
2023/11/22 04:19:35;;;;;;;;;45.75;38.00;;;;;13.93;72.82;100338.78;146619;688;46010;-69
2023/11/22 04:22:37;;;;;;;;;46.25;35.25;;;;;13.94;73.20;100328.41;146613;589;47016;-68
2023/11/22 04:25:37;;;;;;;;;48.00;38.00;;;;;13.95;72.93;100326.66;146619;576;46010;-69
2023/11/22 04:28:39;;;;;;;;;47.75;36.50;;;;;13.96;73.98;100331.94;146614;578;47012;-68
2023/11/22 04:31:33;;;;;;;;;47.25;37.00;;;;;13.93;74.73;100329.25;146619;579;46020;-68
2023/11/22 04:34:35;;;;;;;;;44.50;36.75;;;;;13.91;73.16;100323.09;146615;592;46016;-68
2023/11/22 04:37:38;;;;;;;;;43.25;36.25;;;;;13.92;74.52;100327.44;146618;620;46021;-68
2023/11/22 04:40:42;;;;;;;;;46.50;36.25;;;;;13.93;72.86;100326.62;146617;571;45913;-69
2023/11/22 04:43:48;;;;;;;;;43.25;36.00;;;;;12.84;72.69;100146.03;146612;575;45020;-70
2023/11/22 04:46:40;;;;;;;;;46.50;37.50;;;;;13.95;76.62;100337.09;146614;589;46012;-68
2023/11/22 04:49:39;;;;;;;;;48.50;37.00;;;;;13.92;75.84;100342.22;146615;597;46020;-69
2023/11/22 04:52:34;;;;;;;;;49.25;39.25;;;;;13.86;75.36;100341.22;146613;612;46914;-68
2023/11/22 04:55:30;;;;;;;;;43.75;34.75;;;;;13.92;75.95;100347.44;146618;590;46020;-68
2023/11/22 04:58:32;;;;;;;;;40.75;33.00;;;;;13.94;74.21;100364.00;146616;640;46012;-66
2023/11/22 05:01:29;;;;;;;;;54.00;42.25;;;;;13.95;74.82;100355.34;146619;590;46020;-66
2023/11/22 05:04:30;;;;;;;;;46.00;37.50;;;;;13.95;74.92;100363.16;146612;644;47012;-66
2023/11/22 05:07:38;;;;;;;;;52.50;43.00;;;;;13.95;73.09;100355.34;146617;625;46010;-67
2023/11/22 05:10:44;;;;;;;;;55.75;44.00;;;;;13.21;72.98;100243.56;146616;725;46012;-68
2023/11/22 05:13:36;;;;;;;;;55.75;43.50;;;;;13.93;74.27;100380.50;146609;615;46021;-66
2023/11/22 05:16:27;;;;;;;;;50.50;41.75;;;;;13.91;73.93;100370.00;146615;672;46012;-68
2023/11/22 05:19:31;;;;;;;;;56.25;45.00;;;;;13.91;73.68;100372.59;146614;569;47010;-67
2023/11/22 05:22:32;;;;;;;;;53.75;43.25;;;;;13.86;73.13;100371.56;146608;571;47914;-67
2023/11/22 05:25:27;;;;;;;;;51.75;41.75;;;;;13.84;73.60;100399.31;146619;635;46010;-68
2023/11/22 05:28:38;;;;;;;;;;;;;;;;;;;;;
2023/11/22 05:31:40;;;;;;;;;52.00;41.50;;;;;13.84;73.39;100405.41;146619;705;45022;-68
2023/11/22 05:34:36;;;;;;;;;49.75;41.00;;;;;13.84;73.29;100412.34;146613;577;47015;-67
2023/11/22 05:37:34;;;;;;;;;48.75;40.50;;;;;13.82;73.08;100409.69;146611;575;47010;-68
2023/11/22 05:40:32;;;;;;;;;53.00;43.25;;;;;13.79;73.10;100417.41;146609;564;47916;-68
2023/11/22 05:43:46;;;;;;;;;54.75;42.50;;;;;13.68;73.28;100410.09;146610;565;46010;-68
2023/11/22 05:46:59;;;;;;;;;49.50;39.75;;;;;13.57;72.97;100402.75;146614;611;46016;-72
2023/11/22 05:49:53;;;;;;;;;49.25;39.25;;;;;13.55;72.88;100407.06;146617;586;46021;-71
2023/11/22 05:52:48;;;;;;;;;54.00;42.00;;;;;13.57;73.24;100410.56;146613;628;46916;-72
2023/11/22 05:55:58;;;;;;;;;51.25;42.00;;;;;13.58;72.87;100424.47;146618;570;46020;-71
2023/11/22 05:59:08;;;;;;;;;52.00;41.25;;;;;13.61;72.52;100421.97;146612;620;46014;-70
2023/11/22 06:02:12;;;;;;;;;49.25;40.50;;;;;13.63;74.26;100422.94;146615;575;46020;-68
2023/11/22 06:05:15;;;;;;;;;50.75;41.00;;;;;13.60;73.94;100417.63;146613;564;47013;-68
2023/11/22 06:08:17;;;;;;;;;48.00;38.75;;;;;13.62;74.72;100431.59;146617;657;45022;-70
2023/11/22 06:11:31;;;;;;;;;46.50;38.75;;;;;13.68;74.61;100430.91;146613;571;46016;-69
2023/11/22 06:14:25;;;;;;;;;50.75;40.00;;;;;13.76;74.69;100435.53;146614;619;46010;-68
2023/11/22 06:17:30;;;;;;;;;51.00;41.00;;;;;13.85;73.90;100442.78;146612;621;46016;-69
2023/11/22 06:20:48;;;;;;;;;55.50;43.50;;;;;13.94;74.76;100455.25;146614;660;47021;-71
2023/11/22 06:24:05;;;;;;;;;55.00;42.75;;;;;14.04;74.13;100452.09;146614;564;46016;-71
2023/11/22 06:27:09;;;;;;;;;52.25;43.00;;;;;14.12;74.19;100454.97;146618;708;46021;-70
2023/11/22 06:30:16;;;;;;;;;54.00;42.50;;;;;14.14;73.84;100448.94;146612;684;46012;-71
2023/11/22 06:33:10;;;;;;;;;59.00;46.00;;;;;14.17;73.54;100451.66;146618;566;46021;-70
2023/11/22 06:36:15;;;;;;;;;;;;;;;;;;;;;
2023/11/22 06:39:09;;;;;;;;;49.75;40.00;;;;;14.20;73.98;100469.12;146615;682;46020;-71
2023/11/22 06:42:08;;;;;;;;;62.00;49.00;;;;;14.19;72.69;100475.19;146612;644;46013;-69
2023/11/22 06:45:09;;;;;;;;;61.00;48.75;;;;;14.16;72.82;100472.47;146615;648;46010;-71
2023/11/22 06:48:13;;;;;;;;;64.75;51.00;;;;;14.15;71.22;100471.59;146615;569;46012;-73
2023/11/22 06:51:13;;;;;;;;;60.50;48.00;;;;;14.16;72.32;100460.31;146618;575;46010;-69
2023/11/22 06:54:10;;;;;;;;;62.25;49.00;;;;;14.18;71.01;100470.81;146611;612;46913;-70
2023/11/22 06:57:15;;;;;;;;;61.00;48.75;;;;;14.18;72.12;100470.81;146617;604;46020;-70
2023/11/22 07:00:23;;;;;;;;;61.00;47.50;;;;;14.19;71.51;100473.44;146614;673;46016;-70
2023/11/22 07:03:43;;;;;;;;;60.25;46.75;;;;;14.21;71.81;100471.78;146618;571;47010;-70
2023/11/22 07:06:45;;;;;;;;;60.50;47.50;;;;;14.28;71.13;100475.47;146610;564;47017;-70
2023/11/22 07:09:56;;;;;;;;;56.25;44.25;;;;;14.35;70.49;100484.37;146616;578;46029;-70
2023/11/22 07:12:54;;;;;;;;;53.75;44.00;;;;;14.42;70.97;100489.81;146614;569;46013;-71
2023/11/22 07:15:51;;;;;;;;;51.25;41.75;;;;;14.51;71.05;100489.28;146611;668;46020;-70
2023/11/22 07:19:01;;;;;;;;;54.75;42.00;;;;;14.63;69.98;100494.00;146615;597;47012;-70
2023/11/22 07:22:04;;;;;;;;;50.75;40.50;;;;;14.74;69.67;100501.34;146613;573;46030;-71
2023/11/22 07:25:03;;;;;;;;;50.50;39.75;;;;;14.84;68.84;100501.63;146616;601;46014;-72
2023/11/22 07:28:00;;;;;;;;;48.75;40.00;;;;;14.92;68.13;100513.16;146618;593;47015;-71
2023/11/22 07:30:56;;;;;;;;;50.00;40.25;;;;;14.99;67.99;100512.53;146614;610;46016;-68
2023/11/22 07:33:51;;;;;;;;;51.00;39.25;;;;;15.06;68.19;100514.47;146617;576;46020;-70
2023/11/22 07:36:49;;;;;;;;;56.75;43.75;;;;;15.12;67.70;100505.94;146612;581;46016;-69
2023/11/22 07:40:09;;;;;;;;;50.25;40.00;;;;;13.74;66.62;100261.75;146616;612;46020;-68
2023/11/22 07:43:10;;;;;;;;;52.00;41.50;;;;;15.22;67.81;100527.12;146614;600;46016;-70
2023/11/22 07:46:12;;;;;;;;;51.00;42.50;;;;;15.27;67.41;100526.41;146614;746;47010;-69
2023/11/22 07:49:11;;;;;;;;;49.25;40.25;;;;;15.30;67.27;100529.09;146612;564;46017;-69
2023/11/22 07:52:27;;;;;;;;;52.50;41.00;;;;;15.34;67.02;100529.22;146617;675;46020;-70
2023/11/22 07:55:35;;;;;;;;;49.50;40.25;;;;;15.48;67.25;100534.81;146610;714;48012;-69
2023/11/22 07:58:30;;;;;;;;;48.75;36.50;;;;;15.61;67.62;100529.13;146616;571;46014;-70
2023/11/22 08:01:32;;;;;;;;;51.75;41.00;;;;;15.75;66.37;100524.28;146614;600;46016;-70
2023/11/22 08:04:25;;;;;;;;;50.50;38.75;;;;;15.86;66.17;100530.69;146616;656;46021;-69
2023/11/22 08:07:33;;;;;;;;;43.25;34.25;;;;;15.98;64.86;100518.78;146615;601;46016;-69
2023/11/22 08:10:28;;;;;;;;;28.50;25.75;;;;;16.06;64.35;100520.75;146619;592;46020;-68
2023/11/22 08:13:58;;;;;;;;;31.00;26.25;;;;;16.12;63.03;100533.97;146610;579;46016;-67
2023/11/22 08:17:05;;;;;;;;;32.25;27.75;;;;;16.20;62.87;100522.81;146610;615;47010;-68
2023/11/22 08:20:11;;;;;;;;;34.75;29.25;;;;;16.24;63.07;100509.88;146613;663;47012;-70
2023/11/22 08:23:20;;;;;;;;;53.25;43.00;;;;;16.32;63.81;100502.19;146608;632;47010;-71
2023/11/22 08:26:26;;;;;;;;;;;;;;;;;;;;;
2023/11/22 08:29:31;;;;;;;;;52.50;40.50;;;;;16.36;64.24;100499.72;146616;651;47010;-69
2023/11/22 08:32:31;;;;;;;;;52.25;42.00;;;;;16.45;64.94;100503.38;146610;581;47012;-69
2023/11/22 08:35:35;;;;;;;;;;;;;;;;;;;;;
2023/11/22 08:38:43;;;;;;;;;54.50;43.00;;;;;16.67;65.11;100496.94;146615;609;46012;-68
2023/11/22 08:41:35;;;;;;;;;56.50;44.00;;;;;16.77;65.73;100499.81;146617;604;46014;-68
2023/11/22 08:44:40;;;;;;;;;54.00;42.75;;;;;16.87;65.78;100498.28;146610;607;46915;-69
2023/11/22 08:47:32;;;;;;;;;61.25;49.00;;;;;16.97;65.73;100489.75;146613;603;47010;-68
2023/11/22 08:50:39;;;;;;;;;60.00;47.25;;;;;17.05;65.24;100477.72;146615;585;46012;-69
2023/11/22 08:53:30;;;;;;;;;60.75;46.00;;;;;17.12;64.85;100468.25;146619;686;46020;-70
2023/11/22 08:56:37;;;;;;;;;60.00;47.50;;;;;17.23;64.35;100461.50;146617;615;46017;-70
2023/11/22 08:59:38;;;;;;;;;60.00;48.00;;;;;17.34;64.79;100473.94;146618;564;47014;-69
2023/11/22 09:02:34;;;;;;;;;63.25;49.00;;;;;17.45;64.73;100483.78;146612;580;46016;-69
2023/11/22 09:05:42;;;;;;;;;70.50;55.75;;;;;17.45;64.86;100472.41;146616;595;47020;-70
2023/11/22 09:08:38;;;;;;;;;69.75;54.25;;;;;17.43;64.83;100469.75;146612;618;46014;-70
2023/11/22 09:11:35;;;;;;;;;64.50;51.00;;;;;17.43;64.79;100475.00;146612;577;47020;-69
2023/11/22 09:14:30;;;;;;;;;63.25;50.00;;;;;17.47;65.62;100481.16;146616;596;46012;-69
2023/11/22 09:17:27;;;;;;;;;58.00;46.50;;;;;17.55;64.37;100493.56;146611;588;47010;-69
2023/11/22 09:20:21;;;;;;;;;56.50;44.75;;;;;17.64;63.63;100495.50;146615;569;46012;-69
2023/11/22 09:23:17;;;;;;;;;55.50;44.00;;;;;17.78;64.91;100495.78;146618;626;46010;-70
2023/11/22 09:26:15;;;;;;;;;54.25;42.00;;;;;18.14;64.78;100495.53;146612;644;46017;-69
2023/11/22 09:29:15;;;;;;;;;45.75;37.75;;;;;18.40;62.38;100501.22;146619;579;46020;-69
2023/11/22 09:32:10;;;;;;;;;46.25;36.25;;;;;18.48;60.21;100485.59;146614;573;46017;-69
2023/11/22 09:35:25;;;;;;;;;41.75;34.00;;;;;18.42;60.97;100483.75;146616;632;47010;-70
2023/11/22 09:38:25;;;;;;;;;42.00;34.50;;;;;18.42;61.45;100475.88;146613;606;46016;-70
2023/11/22 09:41:57;;;;;;;;;39.00;33.25;;;;;18.47;61.19;100475.91;146611;594;46021;-70
2023/11/22 09:44:49;;;;;;;;;46.75;38.50;;;;;18.44;60.95;100481.13;146613;564;46012;-71
2023/11/22 09:47:43;;;;;;;;;46.50;37.50;;;;;18.33;60.06;100483.59;146611;601;46020;-70
2023/11/22 09:51:24;;;;;;;;;44.00;34.50;;;;;17.59;60.95;100363.44;146614;611;46028;-70
2023/11/22 09:54:22;;;;;;;;;41.50;34.50;;;;;18.15;61.73;100484.19;146613;568;46020;-70
2023/11/22 09:57:29;;;;;;;;;54.50;42.00;;;;;18.07;61.54;100490.16;146613;592;46017;-70
2023/11/22 10:00:30;;;;;;;;;41.50;34.75;;;;;17.99;63.20;100476.91;146614;607;46020;-69
2023/11/22 10:03:31;;;;;;;;;46.25;35.50;;;;;18.09;62.99;100468.34;146608;631;48008;-71
2023/11/22 10:06:23;;;;;;;;;49.25;41.00;;;;;18.29;63.33;100466.06;146617;801;47020;-70
2023/11/22 10:09:19;;;;;;;;;42.00;34.50;;;;;18.44;63.17;100465.38;146615;590;46012;-70
2023/11/22 10:12:23;;;;;;;;;39.75;33.50;;;;;18.72;63.30;100469.28;146617;584;47010;-70
2023/11/22 10:15:26;;;;;;;;;32.25;29.25;;;;;19.11;62.59;100471.59;146612;580;47014;-70
2023/11/22 10:18:42;;;;;;;;;35.50;30.25;;;;;19.58;61.64;100468.63;146613;643;46010;-70
2023/11/22 10:21:39;;;;;;;;;41.75;31.75;;;;;20.00;59.68;100472.59;146612;571;47014;-69
2023/11/22 10:24:48;;;;;;;;;;;;;;;;;;;;;
2023/11/22 10:27:50;;;;;;;;;33.50;30.00;;;;;20.47;56.71;100451.00;146611;565;46016;-70
2023/11/22 10:30:53;;;;;;;;;31.25;29.00;;;;;20.51;56.85;100449.28;146617;572;46014;-70
2023/11/22 10:34:07;;;;;;;;;;;;;;;;;;;;;
2023/11/22 10:37:04;;;;;;;;;35.25;30.75;;;;;20.55;57.54;100456.34;146617;677;46010;-70
2023/11/22 10:40:00;;;;;;;;;32.50;28.75;;;;;20.52;56.99;100457.19;146611;665;46037;-70
2023/11/22 10:43:05;;;;;;;;;33.25;28.50;;;;;19.11;57.11;100229.81;146615;593;47020;-71
2023/11/22 10:46:10;;;;;;;;;31.75;27.25;;;;;20.41;57.73;100453.59;146611;573;46014;-70
2023/11/22 10:49:03;;;;;;;;;30.50;28.00;;;;;20.39;57.14;100449.19;146612;568;47010;-70
2023/11/22 10:52:06;;;;;;;;;29.50;27.50;;;;;20.40;58.15;100457.06;146611;593;46016;-70
2023/11/22 10:55:15;;;;;;;;;29.00;27.75;;;;;20.44;55.80;100453.63;146615;582;46021;-70
2023/11/22 10:58:31;;;;;;;;;32.75;29.75;;;;;20.50;57.72;100461.56;146614;583;47032;-70
2023/11/22 11:01:34;;;;;;;;;30.50;29.00;;;;;20.66;56.59;100459.94;146613;592;48010;-71
2023/11/22 11:04:57;;;;;;;;;31.75;29.25;;;;;20.93;57.35;100453.94;146612;636;47014;-70
2023/11/22 11:08:14;;;;;;;;;25.25;22.50;;;;;21.23;55.94;100453.16;146614;603;47010;-70
2023/11/22 11:11:19;;;;;;;;;31.25;26.50;;;;;21.42;54.34;100451.50;146612;608;47916;-70
2023/11/22 11:14:26;;;;;;;;;27.75;26.50;;;;;21.41;53.76;100456.78;146614;585;47010;-70
2023/11/22 11:17:26;;;;;;;;;32.50;28.75;;;;;21.26;54.28;100444.37;146614;593;46914;-71
2023/11/22 11:20:58;;;;;;;;;30.00;27.50;;;;;19.73;55.28;100207.53;146606;646;47020;-70
2023/11/22 11:24:05;;;;;;;;;30.75;27.50;;;;;20.93;54.63;100435.50;146613;596;46017;-71
2023/11/22 11:27:29;;;;;;;;;30.75;27.25;;;;;20.64;55.31;100442.34;146615;606;47010;-70
2023/11/22 11:31:09;;;;;;;;;34.25;30.00;;;;;18.88;57.26;100218.25;146611;593;46914;-71
2023/11/22 11:34:13;;;;;;;;;28.75;26.75;;;;;19.90;57.37;100446.16;146618;587;45021;-69
2023/11/22 11:37:30;;;;;;;;;;;;;;;;;;;;;
2023/11/22 11:40:41;;;;;;;;;32.75;29.50;;;;;19.51;58.17;100450.16;146608;573;47010;-72
2023/11/22 11:44:19;;;;;;;;;37.50;30.75;;;;;18.11;58.89;100224.34;146611;609;47012;-71
2023/11/22 11:47:17;;;;;;;;;46.25;35.75;;;;;19.31;58.58;100444.66;146617;646;46020;-70
2023/11/22 11:50:12;;;;;;;;;43.50;36.50;;;;;19.19;58.67;100444.53;146611;649;47012;-71
2023/11/22 11:53:16;;;;;;;;;59.00;44.00;;;;;19.11;59.97;100442.69;146612;571;46010;-69
2023/11/22 11:56:23;;;;;;;;;46.25;35.25;;;;;19.08;59.11;100447.03;146614;630;46037;-71
2023/11/22 11:59:25;;;;;;;;;37.50;33.00;;;;;19.04;59.94;100454.00;146617;563;45020;-70
2023/11/22 12:02:17;;;;;;;;;33.25;30.00;;;;;19.02;59.21;100445.22;146614;641;46916;-70
2023/11/22 12:05:24;;;;;;;;;31.75;29.25;;;;;19.01;60.45;100453.09;146616;624;46020;-70
2023/11/22 12:08:18;;;;;;;;;37.00;31.25;;;;;18.99;59.76;100457.44;146616;677;46015;-70
2023/11/22 12:11:29;;;;;;;;;33.50;29.50;;;;;18.91;60.40;100450.34;146605;642;47010;-70
2023/11/22 12:14:28;;;;;;;;;42.00;36.25;;;;;19.04;59.48;100455.75;146606;577;46012;-69
2023/11/22 12:17:21;;;;;;;;;49.00;37.00;;;;;19.32;60.77;100457.84;146607;569;47011;-70
2023/11/22 12:20:22;;;;;;;;;38.25;33.00;;;;;19.68;60.30;100453.84;146603;586;46016;-69
2023/11/22 12:23:17;;;;;;;;;49.00;40.25;;;;;20.07;58.27;100452.47;146607;581;47010;-71
2023/11/22 12:26:17;;;;;;;;;41.75;32.00;;;;;20.34;56.73;100450.91;146602;700;47014;-70
2023/11/22 12:29:16;;;;;;;;;37.75;31.50;;;;;20.46;56.09;100462.38;146606;577;46020;-70
2023/11/22 12:32:19;;;;;;;;;34.50;31.50;;;;;20.51;55.57;100457.16;146604;571;46016;-70
2023/11/22 12:35:21;;;;;;;;;47.00;37.50;;;;;20.59;56.00;100446.69;146606;608;46020;-71
2023/11/22 12:38:17;;;;;;;;;35.25;30.50;;;;;20.81;55.80;100443.34;146605;593;46016;-70
2023/11/22 12:41:15;;;;;;;;;36.25;31.25;;;;;21.01;54.29;100430.22;146606;581;47010;-71
2023/11/22 12:44:23;;;;;;;;;37.75;32.50;;;;;21.23;53.75;100432.06;146605;602;46016;-70
2023/11/22 12:47:29;;;;;;;;;33.50;29.50;;;;;21.35;53.50;100440.91;146604;632;46010;-70
2023/11/22 12:50:58;;;;;;;;;41.25;33.75;;;;;20.06;55.03;100225.25;146600;604;47012;-70
2023/11/22 12:54:04;;;;;;;;;;;;;;;;;;;;;
2023/11/22 12:57:00;;;;;;;;;41.00;33.00;;;;;21.13;54.63;100443.47;146603;606;46911;-70
2023/11/22 12:59:53;;;;;;;;;42.50;34.50;;;;;21.20;55.05;100450.50;146606;590;46020;-71
2023/11/22 13:02:50;;;;;;;;;43.00;35.00;;;;;21.29;54.03;100444.41;146603;620;47014;-71
2023/11/22 13:05:58;;;;;;;;;41.25;33.00;;;;;21.36;55.14;100456.75;146604;649;46020;-71
2023/11/22 13:08:54;;;;;;;;;37.75;32.50;;;;;21.38;53.78;100451.50;146608;611;46014;-71
2023/11/22 13:12:05;;;;;;;;;44.75;36.00;;;;;21.46;55.47;100449.72;146608;576;46020;-72
2023/11/22 13:15:04;;;;;;;;;44.50;37.25;;;;;21.63;53.65;100445.38;146605;566;46913;-71
2023/11/22 13:18:00;;;;;;;;;44.00;37.25;;;;;21.80;54.29;100442.75;146607;563;47010;-71
2023/11/22 13:20:58;;;;;;;;;41.50;33.75;;;;;21.94;53.92;100458.63;146606;666;46016;-71
2023/11/22 13:23:55;;;;;;;;;35.50;31.50;;;;;21.99;53.43;100450.69;146607;623;46014;-71
2023/11/22 13:26:57;;;;;;;;;49.00;39.25;;;;;22.01;53.05;100455.09;146606;613;46027;-72
2023/11/22 13:29:52;;;;;;;;;52.25;42.00;;;;;21.95;53.11;100451.56;146607;610;46021;-72
2023/11/22 13:32:57;;;;;;;;;47.50;38.75;;;;;21.86;53.54;100453.31;146604;617;46016;-71
2023/11/22 13:35:55;;;;;;;;;35.50;31.00;;;;;21.75;53.07;100455.09;146608;646;46014;-71
2023/11/22 13:38:55;;;;;;;;;38.50;32.50;;;;;21.51;53.36;100457.69;146603;606;46016;-73
2023/11/22 13:41:55;;;;;;;;;37.00;31.75;;;;;21.18;54.71;100456.66;146609;583;46010;-71
2023/11/22 13:44:57;;;;;;;;;44.25;35.75;;;;;20.91;55.33;100467.97;146607;578;46015;-70
2023/11/22 13:48:00;;;;;;;;;45.00;37.50;;;;;20.69;55.76;100474.87;146604;578;47020;-72
2023/11/22 13:51:21;;;;;;;;;40.75;34.00;;;;;20.44;56.62;100465.91;146608;570;46016;-70
2023/11/22 13:54:16;;;;;;;;;41.50;35.50;;;;;20.25;56.65;100460.50;146610;614;45021;-71
2023/11/22 13:57:20;;;;;;;;;41.25;35.00;;;;;20.07;57.32;100477.03;146606;596;46016;-70
2023/11/22 14:00:39;;;;;;;;;45.00;36.75;;;;;19.88;57.68;100476.88;146604;666;47010;-71
2023/11/22 14:03:40;;;;;;;;;44.75;36.25;;;;;19.72;58.42;100470.53;146608;570;46012;-70
2023/11/22 14:06:55;;;;;;;;;49.25;40.00;;;;;19.59;58.45;100480.94;146606;564;46020;-71